Enon, Ohio
Current Conditions -  °F | °C
As of 11:56 PM on Friday 24 Oct 2014 (Local Time) from KSGH Reporting Station
Overcast Overcast  
Wind Chill: 51°   Ceiling: 3800
Heat Index: 51°   Visibility: 7mi
Dew Point: 41°   Wind: 5mph
Humidity: 69%   Direction: 190°S
Pressure: 30.05"   Gusts: NA
Location:  39.88°N, 83.94°W
Report Text: KSGH 250356Z AUTO 19004KT 7SM OVC038 11/05 A3005 RMK AO2 T01050050 401830027 SLP175
Loading
Personal Weather Stations






























Interactive Weather Map
Tropical Storm Tracking
New forecast layout! Learn more

10-Day Weather Forecast

Advertisements
Track Severe Weather on mobile